sensor_id;sensor_type;location;lat;lon;timestamp;pressure;altitude;pressure_sealevel;temperature;humidity
49178;BME280;35016;55.674;37.468;2023-04-28T00:00:19;98497.13;;;13.07;55.07
49178;BME280;35016;55.674;37.468;2023-04-28T00:02:46;98491.19;;;13.05;55.17
49178;BME280;35016;55.674;37.468;2023-04-28T00:05:14;98490.69;;;13.03;55.12
49178;BME280;35016;55.674;37.468;2023-04-28T00:07:41;98487.47;;;13.01;55.14
49178;BME280;35016;55.674;37.468;2023-04-28T00:10:09;98487.72;;;12.99;55.48
49178;BME280;35016;55.674;37.468;2023-04-28T00:12:36;98482.28;;;12.99;55.26
49178;BME280;35016;55.674;37.468;2023-04-28T00:15:03;98486.63;;;13.00;55.50
49178;BME280;35016;55.674;37.468;2023-04-28T00:17:31;98481.47;;;12.99;55.55
49178;BME280;35016;55.674;37.468;2023-04-28T00:19:58;98484.19;;;12.99;55.77
49178;BME280;35016;55.674;37.468;2023-04-28T00:22:25;98472.81;;;12.97;55.42
49178;BME280;35016;55.674;37.468;2023-04-28T00:24:52;98480.16;;;12.96;55.81
49178;BME280;35016;55.674;37.468;2023-04-28T00:27:20;98475.03;;;12.95;55.59
49178;BME280;35016;55.674;37.468;2023-04-28T00:29:46;98467.16;;;12.93;55.94
49178;BME280;35016;55.674;37.468;2023-04-28T00:32:14;98469.88;;;12.93;55.97
49178;BME280;35016;55.674;37.468;2023-04-28T00:34:41;98463.13;;;12.91;56.13
49178;BME280;35016;55.674;37.468;2023-04-28T00:37:08;98473.22;;;12.90;55.86
49178;BME280;35016;55.674;37.468;2023-04-28T00:39:35;98468.88;;;12.89;55.92
49178;BME280;35016;55.674;37.468;2023-04-28T00:42:03;98460.72;;;12.89;56.14
49178;BME280;35016;55.674;37.468;2023-04-28T00:44:30;98458.28;;;12.88;56.14
49178;BME280;35016;55.674;37.468;2023-04-28T00:46:58;98457.47;;;12.87;55.89
49178;BME280;35016;55.674;37.468;2023-04-28T00:49:25;98465.03;;;12.90;56.46
49178;BME280;35016;55.674;37.468;2023-04-28T00:51:52;98455.56;;;12.88;56.21
49178;BME280;35016;55.674;37.468;2023-04-28T00:54:19;98461.00;;;12.88;56.62
49178;BME280;35016;55.674;37.468;2023-04-28T00:56:46;98467.25;;;12.88;56.48
49178;BME280;35016;55.674;37.468;2023-04-28T00:59:14;98464.03;;;12.86;56.21
49178;BME280;35016;55.674;37.468;2023-04-28T01:01:41;98469.97;;;12.88;56.28
49178;BME280;35016;55.674;37.468;2023-04-28T01:04:09;98472.69;;;12.88;56.45
49178;BME280;35016;55.674;37.468;2023-04-28T01:06:40;98470.78;;;12.89;56.29
49178;BME280;35016;55.674;37.468;2023-04-28T01:09:07;98468.88;;;12.89;56.69
49178;BME280;35016;55.674;37.468;2023-04-28T01:11:35;98460.50;;;12.86;56.65
49178;BME280;35016;55.674;37.468;2023-04-28T01:14:07;98470.06;;;12.83;56.45
49178;BME280;35016;55.674;37.468;2023-04-28T01:16:37;98468.47;;;12.82;56.58
49178;BME280;35016;55.674;37.468;2023-04-28T01:19:06;98468.47;;;12.82;56.98
49178;BME280;35016;55.674;37.468;2023-04-28T01:21:37;98467.66;;;12.82;57.09
49178;BME280;35016;55.674;37.468;2023-04-28T01:24:31;98467.66;;;12.82;56.78
49178;BME280;35016;55.674;37.468;2023-04-28T01:27:02;98470.38;;;12.82;56.94
49178;BME280;35016;55.674;37.468;2023-04-28T01:29:29;98463.81;;;12.83;57.24
49178;BME280;35016;55.674;37.468;2023-04-28T01:31:56;98463.03;;;12.82;56.84
49178;BME280;35016;55.674;37.468;2023-04-28T01:34:23;98472.00;;;12.83;56.71
49178;BME280;35016;55.674;37.468;2023-04-28T01:36:51;98468.75;;;12.81;57.18
49178;BME280;35016;55.674;37.468;2023-04-28T01:39:18;98465.41;;;12.70;57.19
49178;BME280;35016;55.674;37.468;2023-04-28T01:41:45;98469.06;;;12.79;57.38
49178;BME280;35016;55.674;37.468;2023-04-28T01:44:12;98473.41;;;12.80;57.34
49178;BME280;35016;55.674;37.468;2023-04-28T01:46:39;98472.00;;;12.83;57.36
49178;BME280;35016;55.674;37.468;2023-04-28T01:49:06;98474.41;;;12.84;57.40
49178;BME280;35016;55.674;37.468;2023-04-28T01:51:33;98471.91;;;12.88;56.90
49178;BME280;35016;55.674;37.468;2023-04-28T01:54:01;98460.41;;;12.91;57.27
49178;BME280;35016;55.674;37.468;2023-04-28T01:56:28;98460.41;;;12.91;57.42
49178;BME280;35016;55.674;37.468;2023-04-28T01:58:56;98462.81;;;12.92;57.05
49178;BME280;35016;55.674;37.468;2023-04-28T02:01:24;98455.78;;;12.91;57.23
49178;BME280;35016;55.674;37.468;2023-04-28T02:03:51;98450.03;;;12.93;57.42
49178;BME280;35016;55.674;37.468;2023-04-28T02:06:18;98457.38;;;12.92;57.47
49178;BME280;35016;55.674;37.468;2023-04-28T02:08:45;98460.91;;;12.93;57.56
49178;BME280;35016;55.674;37.468;2023-04-28T02:11:12;98457.91;;;12.94;57.40
49178;BME280;35016;55.674;37.468;2023-04-28T02:13:40;98459.00;;;12.93;57.55
49178;BME280;35016;55.674;37.468;2023-04-28T02:16:08;98465.25;;;12.94;57.68
49178;BME280;35016;55.674;37.468;2023-04-28T02:18:35;98450.94;;;12.88;57.52
49178;BME280;35016;55.674;37.468;2023-04-28T02:21:09;98446.72;;;12.96;58.45
49178;BME280;35016;55.674;37.468;2023-04-28T02:23:39;98458.91;;;12.98;57.71
49178;BME280;35016;55.674;37.468;2023-04-28T02:26:06;98455.88;;;13.00;57.55
49178;BME280;35016;55.674;37.468;2023-04-28T02:28:33;98471.13;;;13.01;57.88
49178;BME280;35016;55.674;37.468;2023-04-28T02:31:07;98468.59;;;13.05;58.46
49178;BME280;35016;55.674;37.468;2023-04-28T02:33:36;98475.97;;;13.04;57.92
49178;BME280;35016;55.674;37.468;2023-04-28T02:36:04;98472.13;;;13.05;58.13
49178;BME280;35016;55.674;37.468;2023-04-28T02:38:31;98476.78;;;13.05;57.96
49178;BME280;35016;55.674;37.468;2023-04-28T02:41:00;98478.69;;;13.04;58.23
49178;BME280;35016;55.674;37.468;2023-04-28T02:43:28;98476.47;;;13.06;58.10
49178;BME280;35016;55.674;37.468;2023-04-28T02:45:55;98477.28;;;13.07;57.94
49178;BME280;35016;55.674;37.468;2023-04-28T02:48:23;98486.75;;;13.09;58.03
49178;BME280;35016;55.674;37.468;2023-04-28T02:50:52;98489.47;;;13.09;58.10
49178;BME280;35016;55.674;37.468;2023-04-28T02:53:20;98481.81;;;13.11;58.42
49178;BME280;35016;55.674;37.468;2023-04-28T02:55:48;98484.44;;;13.16;58.10
49178;BME280;35016;55.674;37.468;2023-04-28T02:58:15;98483.56;;;13.21;58.30
49178;BME280;35016;55.674;37.468;2023-04-28T03:00:45;98482.97;;;13.24;58.14
49178;BME280;35016;55.674;37.468;2023-04-28T03:03:13;98479.31;;;13.28;58.36
49178;BME280;35016;55.674;37.468;2023-04-28T03:05:40;98478.75;;;13.31;58.37
49178;BME280;35016;55.674;37.468;2023-04-28T03:08:07;98473.81;;;13.33;58.12
49178;BME280;35016;55.674;37.468;2023-04-28T03:10:34;98477.34;;;13.34;58.14
49178;BME280;35016;55.674;37.468;2023-04-28T03:13:02;98485.50;;;13.34;58.25
49178;BME280;35016;55.674;37.468;2023-04-28T03:15:29;98476.53;;;13.33;58.21
49178;BME280;35016;55.674;37.468;2023-04-28T03:17:57;98484.38;;;13.35;58.38
49178;BME280;35016;55.674;37.468;2023-04-28T03:20:24;98508.28;;;13.38;58.45
49178;BME280;35016;55.674;37.468;2023-04-28T03:22:51;98506.06;;;13.40;58.31
49178;BME280;35016;55.674;37.468;2023-04-28T03:25:18;98506.56;;;13.42;58.42
49178;BME280;35016;55.674;37.468;2023-04-28T03:27:48;98507.38;;;13.43;58.40
49178;BME280;35016;55.674;37.468;2023-04-28T03:30:15;98500.03;;;13.43;58.49
49178;BME280;35016;55.674;37.468;2023-04-28T03:32:41;98506.47;;;13.47;58.34
49178;BME280;35016;55.674;37.468;2023-04-28T03:35:09;98506.97;;;13.49;58.14
49178;BME280;35016;55.674;37.468;2023-04-28T03:37:37;98507.16;;;13.53;58.39
49178;BME280;35016;55.674;37.468;2023-04-28T03:40:05;98508.97;;;13.57;58.49
49178;BME280;35016;55.674;37.468;2023-04-28T03:42:51;98505.06;;;13.63;58.34
49178;BME280;35016;55.674;37.468;2023-04-28T03:45:27;98510.91;;;13.71;58.21
49178;BME280;35016;55.674;37.468;2023-04-28T03:47:54;98521.09;;;13.79;58.08
49178;BME280;35016;55.674;37.468;2023-04-28T03:50:21;98525.63;;;13.83;57.84
49178;BME280;35016;55.674;37.468;2023-04-28T03:52:51;98523.09;;;13.87;57.81
49178;BME280;35016;55.674;37.468;2023-04-28T03:55:18;98519.47;;;13.91;57.83
49178;BME280;35016;55.674;37.468;2023-04-28T03:57:45;98527.84;;;13.95;57.70
49178;BME280;35016;55.674;37.468;2023-04-28T04:00:13;98525.00;;;14.00;57.71
49178;BME280;35016;55.674;37.468;2023-04-28T04:02:45;98531.16;;;14.06;57.47
49178;BME280;35016;55.674;37.468;2023-04-28T04:05:14;98517.72;;;14.09;57.43
49178;BME280;35016;55.674;37.468;2023-04-28T04:07:42;98519.50;;;14.14;57.32
49178;BME280;35016;55.674;37.468;2023-04-28T04:10:09;98527.19;;;14.12;57.30
49178;BME280;35016;55.674;37.468;2023-04-28T04:12:39;98525.69;;;14.19;57.27
49178;BME280;35016;55.674;37.468;2023-04-28T04:15:07;98528.91;;;14.21;57.40
49178;BME280;35016;55.674;37.468;2023-04-28T04:17:35;98527.00;;;14.22;57.21
49178;BME280;35016;55.674;37.468;2023-04-28T04:20:02;98528.41;;;14.19;57.25
49178;BME280;35016;55.674;37.468;2023-04-28T04:22:29;98531.63;;;14.21;57.28
49178;BME280;35016;55.674;37.468;2023-04-28T04:24:56;98543.97;;;14.19;57.38
49178;BME280;35016;55.674;37.468;2023-04-28T04:27:24;98546.19;;;14.17;57.47
49178;BME280;35016;55.674;37.468;2023-04-28T04:29:51;98539.09;;;14.16;57.23
49178;BME280;35016;55.674;37.468;2023-04-28T04:32:19;98540.81;;;14.12;57.57
49178;BME280;35016;55.674;37.468;2023-04-28T04:34:46;98542.25;;;14.09;57.56
49178;BME280;35016;55.674;37.468;2023-04-28T04:37:13;98545.88;;;14.05;57.60
49178;BME280;35016;55.674;37.468;2023-04-28T04:39:47;98541.56;;;14.04;57.88
49178;BME280;35016;55.674;37.468;2023-04-28T04:42:16;98540.34;;;13.96;57.94
49178;BME280;35016;55.674;37.468;2023-04-28T04:45:14;98544.50;;;13.93;58.03
49178;BME280;35016;55.674;37.468;2023-04-28T04:47:42;98540.78;;;13.89;58.22
49178;BME280;35016;55.674;37.468;2023-04-28T04:50:10;98547.03;;;13.90;58.36
49178;BME280;35016;55.674;37.468;2023-04-28T04:52:38;98548.94;;;13.89;58.95
49178;BME280;35016;55.674;37.468;2023-04-28T04:55:06;98557.41;;;14.02;58.79
49178;BME280;35016;55.674;37.468;2023-04-28T04:57:33;98556.69;;;14.10;58.87
49178;BME280;35016;55.674;37.468;2023-04-28T05:00:12;98564.84;;;14.23;58.61
49178;BME280;35016;55.674;37.468;2023-04-28T05:02:41;98566.53;;;14.33;58.27
49178;BME280;35016;55.674;37.468;2023-04-28T05:05:08;98560.16;;;14.38;58.27
49178;BME280;35016;55.674;37.468;2023-04-28T05:07:55;98564.41;;;14.44;58.38
49178;BME280;35016;55.674;37.468;2023-04-28T05:10:23;98564.69;;;14.42;58.61
49178;BME280;35016;55.674;37.468;2023-04-28T05:12:50;98572.06;;;14.42;58.37
49178;BME280;35016;55.674;37.468;2023-04-28T05:15:17;98570.47;;;14.41;58.46
49178;BME280;35016;55.674;37.468;2023-04-28T05:18:03;98576.34;;;14.34;58.64
49178;BME280;35016;55.674;37.468;2023-04-28T05:20:36;98584.81;;;14.33;58.60
49178;BME280;35016;55.674;37.468;2023-04-28T05:23:04;98571.41;;;14.22;58.68
49178;BME280;35016;55.674;37.468;2023-04-28T05:25:31;98572.13;;;14.14;59.27
49178;BME280;35016;55.674;37.468;2023-04-28T05:27:59;98562.13;;;14.10;59.78
49178;BME280;35016;55.674;37.468;2023-04-28T05:30:30;98564.25;;;14.13;60.04
49178;BME280;35016;55.674;37.468;2023-04-28T05:32:57;98572.94;;;14.15;60.21
49178;BME280;35016;55.674;37.468;2023-04-28T05:35:25;98572.13;;;14.14;60.33
49178;BME280;35016;55.674;37.468;2023-04-28T05:37:53;98578.69;;;14.13;60.76
49178;BME280;35016;55.674;37.468;2023-04-28T05:40:20;98578.19;;;14.11;61.01
49178;BME280;35016;55.674;37.468;2023-04-28T05:42:47;98572.72;;;14.11;60.86
49178;BME280;35016;55.674;37.468;2023-04-28T05:45:14;98566.28;;;14.07;60.94
49178;BME280;35016;55.674;37.468;2023-04-28T05:47:41;98569.19;;;14.11;61.04
49178;BME280;35016;55.674;37.468;2023-04-28T05:50:09;98586.88;;;14.13;61.34
49178;BME280;35016;55.674;37.468;2023-04-28T05:52:37;98581.72;;;14.12;61.35
49178;BME280;35016;55.674;37.468;2023-04-28T05:55:04;98582.53;;;14.12;61.45
49178;BME280;35016;55.674;37.468;2023-04-28T05:57:32;98579.50;;;14.14;61.54
49178;BME280;35016;55.674;37.468;2023-04-28T06:00:16;98579.72;;;14.17;61.74
49178;BME280;35016;55.674;37.468;2023-04-28T06:02:43;98581.09;;;14.29;61.86
49178;BME280;35016;55.674;37.468;2023-04-28T06:05:10;98568.16;;;14.34;61.96
49178;BME280;35016;55.674;37.468;2023-04-28T06:07:38;98581.38;;;14.54;61.89
49178;BME280;35016;55.674;37.468;2023-04-28T06:10:05;98580.69;;;14.71;62.08
49178;BME280;35016;55.674;37.468;2023-04-28T06:12:33;98579.91;;;14.93;61.93
49178;BME280;35016;55.674;37.468;2023-04-28T06:15:00;98576.22;;;15.20;61.57
49178;BME280;35016;55.674;37.468;2023-04-28T06:17:29;98569.00;;;15.46;60.63
49178;BME280;35016;55.674;37.468;2023-04-28T06:19:58;98569.63;;;15.74;60.44
49178;BME280;35016;55.674;37.468;2023-04-28T06:22:25;98567.13;;;15.95;59.88
49178;BME280;35016;55.674;37.468;2023-04-28T06:24:52;98553.81;;;16.11;59.63
49178;BME280;35016;55.674;37.468;2023-04-28T06:27:28;98571.53;;;16.22;59.12
49178;BME280;35016;55.674;37.468;2023-04-28T06:29:58;98569.28;;;16.33;59.29
49178;BME280;35016;55.674;37.468;2023-04-28T06:32:25;98562.38;;;16.44;58.83
49178;BME280;35016;55.674;37.468;2023-04-28T06:34:52;98573.34;;;16.53;58.59
49178;BME280;35016;55.674;37.468;2023-04-28T06:37:22;98565.78;;;16.58;58.36
49178;BME280;35016;55.674;37.468;2023-04-28T06:39:49;98561.28;;;16.62;58.06
49178;BME280;35016;55.674;37.468;2023-04-28T06:42:16;98567.25;;;16.73;58.12
49178;BME280;35016;55.674;37.468;2023-04-28T06:44:52;98560.66;;;16.83;57.67
49178;BME280;35016;55.674;37.468;2023-04-28T06:47:19;98561.13;;;16.93;57.44
49178;BME280;35016;55.674;37.468;2023-04-28T06:49:47;98559.50;;;17.01;57.27
49178;BME280;35016;55.674;37.468;2023-04-28T06:52:16;98561.25;;;17.06;57.14
49178;BME280;35016;55.674;37.468;2023-04-28T06:54:43;98551.59;;;17.08;56.73
49178;BME280;35016;55.674;37.468;2023-04-28T06:57:10;98558.84;;;17.13;56.91
49178;BME280;35016;55.674;37.468;2023-04-28T06:59:37;98563.66;;;17.24;56.63
49178;BME280;35016;55.674;37.468;2023-04-28T07:02:04;98556.19;;;17.33;56.39
49178;BME280;35016;55.674;37.468;2023-04-28T07:04:31;98557.66;;;17.40;56.46
49178;BME280;35016;55.674;37.468;2023-04-28T07:06:58;98552.78;;;17.45;56.34
49178;BME280;35016;55.674;37.468;2023-04-28T07:09:25;98555.81;;;17.52;56.15
49178;BME280;35016;55.674;37.468;2023-04-28T07:11:53;98565.97;;;17.69;56.03
49178;BME280;35016;55.674;37.468;2023-04-28T07:14:21;98563.00;;;17.83;55.64
49178;BME280;35016;55.674;37.468;2023-04-28T07:16:48;98568.75;;;17.90;55.32
49178;BME280;35016;55.674;37.468;2023-04-28T07:19:15;98563.47;;;17.85;55.40
49178;BME280;35016;55.674;37.468;2023-04-28T07:21:42;98567.72;;;17.74;55.34
49178;BME280;35016;55.674;37.468;2023-04-28T07:24:10;98573.03;;;17.61;55.44
49178;BME280;35016;55.674;37.468;2023-04-28T07:26:37;98584.56;;;17.46;55.85
49178;BME280;35016;55.674;37.468;2023-04-28T07:29:04;98587.16;;;17.34;55.82
49178;BME280;35016;55.674;37.468;2023-04-28T07:31:31;98589.59;;;17.27;56.18
49178;BME280;35016;55.674;37.468;2023-04-28T07:33:58;98582.69;;;17.21;56.45
49178;BME280;35016;55.674;37.468;2023-04-28T07:36:25;98589.63;;;17.10;56.34
49178;BME280;35016;55.674;37.468;2023-04-28T07:38:52;98585.28;;;17.00;56.52
49178;BME280;35016;55.674;37.468;2023-04-28T07:41:19;98582.56;;;16.91;56.85
49178;BME280;35016;55.674;37.468;2023-04-28T07:43:46;98591.09;;;16.81;56.70
49178;BME280;35016;55.674;37.468;2023-04-28T07:46:13;98590.44;;;16.76;56.96
49178;BME280;35016;55.674;37.468;2023-04-28T07:48:41;98584.16;;;16.75;57.01
49178;BME280;35016;55.674;37.468;2023-04-28T07:51:11;98579.81;;;16.74;57.52
49178;BME280;35016;55.674;37.468;2023-04-28T07:53:38;98588.50;;;16.76;57.25
49178;BME280;35016;55.674;37.468;2023-04-28T07:56:05;98582.22;;;16.76;57.52
49178;BME280;35016;55.674;37.468;2023-04-28T07:58:32;98583.53;;;16.78;57.41
49178;BME280;35016;55.674;37.468;2023-04-28T08:00:59;98589.50;;;16.80;57.25
49178;BME280;35016;55.674;37.468;2023-04-28T08:03:26;98586.88;;;16.75;57.42
49178;BME280;35016;55.674;37.468;2023-04-28T08:05:53;98587.72;;;16.67;57.53
49178;BME280;35016;55.674;37.468;2023-04-28T08:08:21;98595.41;;;16.65;57.89
49178;BME280;35016;55.674;37.468;2023-04-28T08:10:48;98603.28;;;16.58;57.63
49178;BME280;35016;55.674;37.468;2023-04-28T08:13:16;98586.22;;;16.52;58.44
49178;BME280;35016;55.674;37.468;2023-04-28T08:15:43;98587.69;;;16.50;58.33
49178;BME280;35016;55.674;37.468;2023-04-28T08:18:10;98590.06;;;16.42;58.64
49178;BME280;35016;55.674;37.468;2023-04-28T08:20:37;98595.38;;;16.48;59.32
49178;BME280;35016;55.674;37.468;2023-04-28T08:23:05;98596.84;;;16.54;59.40
49178;BME280;35016;55.674;37.468;2023-04-28T08:25:32;98592.66;;;16.56;59.78
49178;BME280;35016;55.674;37.468;2023-04-28T08:27:59;98590.09;;;16.51;59.72
49178;BME280;35016;55.674;37.468;2023-04-28T08:30:26;98598.94;;;16.48;59.92
49178;BME280;35016;55.674;37.468;2023-04-28T08:32:53;98600.53;;;16.40;60.14
49178;BME280;35016;55.674;37.468;2023-04-28T08:35:20;98597.13;;;16.35;60.18
49178;BME280;35016;55.674;37.468;2023-04-28T08:37:47;98600.84;;;16.30;60.76
49178;BME280;35016;55.674;37.468;2023-04-28T08:40:15;98597.63;;;16.28;60.74
49178;BME280;35016;55.674;37.468;2023-04-28T08:42:43;98602.44;;;16.31;60.99
49178;BME280;35016;55.674;37.468;2023-04-28T08:45:14;98609.38;;;16.37;61.30
49178;BME280;35016;55.674;37.468;2023-04-28T08:47:42;98602.63;;;16.43;60.82
49178;BME280;35016;55.674;37.468;2023-04-28T08:50:14;98603.28;;;16.58;60.55
49178;BME280;35016;55.674;37.468;2023-04-28T08:52:42;98600.91;;;16.73;60.67
49178;BME280;35016;55.674;37.468;2023-04-28T08:55:10;98598.50;;;16.89;60.04
49178;BME280;35016;55.674;37.468;2023-04-28T08:57:40;98601.56;;;16.96;59.92
49178;BME280;35016;55.674;37.468;2023-04-28T09:00:09;98601.88;;;16.95;59.64
49178;BME280;35016;55.674;37.468;2023-04-28T09:02:37;98608.66;;;16.89;60.16
49178;BME280;35016;55.674;37.468;2023-04-28T09:05:09;98611.56;;;16.84;60.25
49178;BME280;35016;55.674;37.468;2023-04-28T09:07:37;98607.84;;;16.80;59.99
49178;BME280;35016;55.674;37.468;2023-04-28T09:10:23;98607.66;;;16.76;60.87
49178;BME280;35016;55.674;37.468;2023-04-28T09:12:52;98611.03;;;16.64;60.32
49178;BME280;35016;55.674;37.468;2023-04-28T09:15:39;98602.66;;;16.61;61.20
49178;BME280;35016;55.674;37.468;2023-04-28T09:18:07;98593.47;;;16.65;60.58
49178;BME280;35016;55.674;37.468;2023-04-28T09:20:35;98604.44;;;17.00;60.36
49178;BME280;35016;55.674;37.468;2023-04-28T09:23:17;98604.09;;;17.27;60.18
49178;BME280;35016;55.674;37.468;2023-04-28T09:26:04;98594.81;;;17.58;59.64
49178;BME280;35016;55.674;37.468;2023-04-28T09:28:32;98592.41;;;17.74;58.99
49178;BME280;35016;55.674;37.468;2023-04-28T09:31:00;98592.81;;;17.84;58.66
49178;BME280;35016;55.674;37.468;2023-04-28T09:33:27;98591.66;;;17.94;58.56
49178;BME280;35016;55.674;37.468;2023-04-28T09:35:55;98585.81;;;18.04;58.28
49178;BME280;35016;55.674;37.468;2023-04-28T09:38:22;98590.22;;;18.26;58.03
49178;BME280;35016;55.674;37.468;2023-04-28T09:40:59;98591.69;;;18.44;57.77
49178;BME280;35016;55.674;37.468;2023-04-28T09:43:31;98592.16;;;18.46;57.61
49178;BME280;35016;55.674;37.468;2023-04-28T09:46:01;98599.13;;;18.44;57.33
49178;BME280;35016;55.674;37.468;2023-04-28T09:48:31;98594.16;;;18.37;57.27
49178;BME280;35016;55.674;37.468;2023-04-28T09:51:00;98601.84;;;18.23;57.57
49178;BME280;35016;55.674;37.468;2023-04-28T09:53:29;98596.91;;;18.08;57.82
49178;BME280;35016;55.674;37.468;2023-04-28T09:56:00;98605.88;;;17.87;57.75
49178;BME280;35016;55.674;37.468;2023-04-28T09:58:28;98596.13;;;17.69;57.90
49178;BME280;35016;55.674;37.468;2023-04-28T10:00:57;98604.03;;;17.53;58.33
49178;BME280;35016;55.674;37.468;2023-04-28T10:03:25;98610.84;;;17.39;58.32
49178;BME280;35016;55.674;37.468;2023-04-28T10:05:57;98605.06;;;17.23;58.41
49178;BME280;35016;55.674;37.468;2023-04-28T10:08:25;98614.94;;;17.07;58.71
49178;BME280;35016;55.674;37.468;2023-04-28T10:10:53;98621.22;;;16.90;59.12
49178;BME280;35016;55.674;37.468;2023-04-28T10:13:22;98627.66;;;16.68;59.47
49178;BME280;35016;55.674;37.468;2023-04-28T10:15:50;98627.41;;;16.38;60.18
49178;BME280;35016;55.674;37.468;2023-04-28T10:18:22;98627.44;;;15.90;61.22
49178;BME280;35016;55.674;37.468;2023-04-28T10:20:54;98631.47;;;15.39;63.43
49178;BME280;35016;55.674;37.468;2023-04-28T10:26:17;98629.44;;;14.64;65.31
49178;BME280;35016;55.674;37.468;2023-04-28T10:28:47;98636.94;;;14.45;66.31
49178;BME280;35016;55.674;37.468;2023-04-28T10:31:18;98634.53;;;14.30;67.36
49178;BME280;35016;55.674;37.468;2023-04-28T10:33:49;98637.56;;;14.14;67.87
49178;BME280;35016;55.674;37.468;2023-04-28T10:39:18;98641.41;;;14.00;69.06
49178;BME280;35016;55.674;37.468;2023-04-28T10:41:46;98636.88;;;13.95;69.60
49178;BME280;35016;55.674;37.468;2023-04-28T10:47:04;98634.44;;;13.93;71.62
49178;BME280;35016;55.674;37.468;2023-04-28T10:52:48;98635.13;;;14.13;72.75
49178;BME280;35016;55.674;37.468;2023-04-28T10:55:29;98643.44;;;14.21;72.06
49178;BME280;35016;55.674;37.468;2023-04-28T11:00:42;98650.91;;;14.02;70.68
49178;BME280;35016;55.674;37.468;2023-04-28T11:08:56;98645.84;;;13.95;71.42
49178;BME280;35016;55.674;37.468;2023-04-28T11:13:53;98653.72;;;14.11;71.92
49178;BME280;35016;55.674;37.468;2023-04-28T11:16:23;98632.00;;;14.06;72.02
49178;BME280;35016;55.674;37.468;2023-04-28T11:21:23;98639.91;;;14.21;72.61
49178;BME280;35016;55.674;37.468;2023-04-28T11:23:51;98637.38;;;14.24;72.45
49178;BME280;35016;55.674;37.468;2023-04-28T11:26:18;98636.94;;;14.31;72.88
49178;BME280;35016;55.674;37.468;2023-04-28T11:28:47;98634.81;;;14.42;73.02
49178;BME280;35016;55.674;37.468;2023-04-28T11:31:15;98636.44;;;14.56;72.97
49178;BME280;35016;55.674;37.468;2023-04-28T11:34:10;98648.72;;;14.81;74.11
49178;BME280;35016;55.674;37.468;2023-04-28T11:36:43;98645.75;;;15.14;72.77
49178;BME280;35016;55.674;37.468;2023-04-28T11:39:11;98644.09;;;15.58;72.72
49178;BME280;35016;55.674;37.468;2023-04-28T11:41:41;98650.63;;;16.01;72.51
49178;BME280;35016;55.674;37.468;2023-04-28T11:44:19;98650.75;;;16.45;71.44
49178;BME280;35016;55.674;37.468;2023-04-28T11:46:57;98654.53;;;16.66;70.21
49178;BME280;35016;55.674;37.468;2023-04-28T11:49:28;98645.00;;;16.63;69.56
49178;BME280;35016;55.674;37.468;2023-04-28T11:51:57;98648.22;;;16.57;69.18
49178;BME280;35016;55.674;37.468;2023-04-28T11:54:27;98642.22;;;16.46;68.67
49178;BME280;35016;55.674;37.468;2023-04-28T11:56:56;98657.00;;;16.28;68.16
49178;BME280;35016;55.674;37.468;2023-04-28T11:59:31;98648.22;;;16.00;66.98
49178;BME280;35016;55.674;37.468;2023-04-28T12:02:04;98645.81;;;15.67;67.17
49178;BME280;35016;55.674;37.468;2023-04-28T12:04:35;98642.41;;;15.39;67.44
49178;BME280;35016;55.674;37.468;2023-04-28T12:07:14;98642.41;;;15.17;67.84
49178;BME280;35016;55.674;37.468;2023-04-28T12:12:35;98641.03;;;14.83;68.25
49178;BME280;35016;55.674;37.468;2023-04-28T12:15:06;98632.97;;;14.65;68.49
49178;BME280;35016;55.674;37.468;2023-04-28T12:17:35;98648.28;;;14.52;68.29
49178;BME280;35016;55.674;37.468;2023-04-28T12:20:05;98638.25;;;14.34;68.43
49178;BME280;35016;55.674;37.468;2023-04-28T12:22:47;98646.78;;;14.18;68.95
49178;BME280;35016;55.674;37.468;2023-04-28T12:25:16;98653.94;;;14.01;68.83
49178;BME280;35016;55.674;37.468;2023-04-28T12:28:05;98655.00;;;13.86;69.15
49178;BME280;35016;55.674;37.468;2023-04-28T12:30:37;98663.69;;;13.74;69.28
49178;BME280;35016;55.674;37.468;2023-04-28T12:33:27;98664.59;;;13.70;69.96
49178;BME280;35016;55.674;37.468;2023-04-28T12:35:56;98671.56;;;13.62;69.29
49178;BME280;35016;55.674;37.468;2023-04-28T12:38:23;98668.09;;;13.56;69.47
49178;BME280;35016;55.674;37.468;2023-04-28T12:40:51;98647.41;;;13.55;69.72
49178;BME280;35016;55.674;37.468;2023-04-28T12:43:18;98656.69;;;13.54;69.65
49178;BME280;35016;55.674;37.468;2023-04-28T12:45:49;98670.69;;;13.48;69.32
49178;BME280;35016;55.674;37.468;2023-04-28T12:48:19;98666.06;;;13.48;69.71
49178;BME280;35016;55.674;37.468;2023-04-28T12:50:47;98658.22;;;13.60;69.80
49178;BME280;35016;55.674;37.468;2023-04-28T12:53:14;98656.44;;;13.83;69.67
49178;BME280;35016;55.674;37.468;2023-04-28T12:55:43;98663.81;;;13.97;69.07
49178;BME280;35016;55.674;37.468;2023-04-28T12:58:10;98663.81;;;13.97;68.69
49178;BME280;35016;55.674;37.468;2023-04-28T13:00:38;98670.00;;;13.88;68.61
49178;BME280;35016;55.674;37.468;2023-04-28T13:03:10;98669.16;;;13.74;68.74
49178;BME280;35016;55.674;37.468;2023-04-28T13:05:41;98670.16;;;13.64;68.93
49178;BME280;35016;55.674;37.468;2023-04-28T13:08:08;98660.41;;;13.58;69.00
49178;BME280;35016;55.674;37.468;2023-04-28T13:10:35;98657.44;;;13.60;69.02
49178;BME280;35016;55.674;37.468;2023-04-28T13:13:02;98669.69;;;13.57;68.81
49178;BME280;35016;55.674;37.468;2023-04-28T13:15:31;98665.53;;;13.46;69.10
49178;BME280;35016;55.674;37.468;2023-04-28T13:17:58;98680.53;;;13.30;68.91
49178;BME280;35016;55.674;37.468;2023-04-28T13:20:25;98675.53;;;13.18;69.05
49178;BME280;35016;55.674;37.468;2023-04-28T13:22:52;98690.09;;;13.09;69.31
49178;BME280;35016;55.674;37.468;2023-04-28T13:25:19;98688.09;;;12.95;69.23
49178;BME280;35016;55.674;37.468;2023-04-28T13:27:47;98686.41;;;12.81;69.80